Time;durP1;ratioP1;P1;durP2;ratioP2;P2;SDS_P1;SDS_P2;PMS_P1;PMS_P2;Temp;Humidity;BMP_temperature;BMP_pressure;BME280_temperature;BME280_humidity;BME280_pressure;Samples;Min_cycle;Max_cycle;Signal;HPM_P1;HPM_P2
2022/04/10 00:01:36;;;;;;;3.63;2.72;;;2.90;99.90;;;;;;5078590;28;20261;-50
2022/04/10 00:04:05;;;;;;;5.38;3.10;;;3.00;99.90;;;;;;5078836;28;20245;-53
2022/04/10 00:06:32;;;;;;;5.85;3.03;;;3.10;99.90;;;;;;5079100;28;20215;-51
2022/04/10 00:09:00;;;;;;;3.58;2.95;;;3.10;99.90;;;;;;5078676;28;20248;-52
2022/04/10 00:11:27;;;;;;;3.28;2.92;;;3.20;99.90;;;;;;5077706;28;20224;-52
2022/04/10 00:13:55;;;;;;;6.57;3.00;;;3.20;99.90;;;;;;5078567;28;20188;-52
2022/04/10 00:16:23;;;;;;;2.80;1.90;;;3.10;99.90;;;;;;5078700;28;20246;-50
2022/04/10 00:18:51;;;;;;;3.22;2.92;;;3.10;99.90;;;;;;5078670;28;20535;-51
2022/04/10 00:21:18;;;;;;;6.00;2.40;;;3.10;99.90;;;;;;5078791;28;20205;-52
2022/04/10 00:23:46;;;;;;;3.75;2.90;;;3.20;99.90;;;;;;5079128;28;20203;-50
2022/04/10 00:26:14;;;;;;;3.47;3.17;;;3.20;99.90;;;;;;5079204;28;20223;-52
2022/04/10 00:28:41;;;;;;;4.90;3.20;;;3.20;99.90;;;;;;5083752;28;20457;-53
2022/04/10 00:31:13;;;;;;;2.92;2.53;;;3.10;99.90;;;;;;5084609;28;20236;-54
2022/04/10 00:33:40;;;;;;;5.32;3.00;;;3.20;99.90;;;;;;5083411;28;20224;-53
2022/04/10 00:36:08;;;;;;;5.55;3.63;;;3.10;99.90;;;;;;5083752;28;20201;-54
2022/04/10 00:38:36;;;;;;;2.63;2.42;;;3.10;99.90;;;;;;5082498;28;20239;-51
2022/04/10 00:41:03;;;;;;;2.17;2.05;;;3.00;99.90;;;;;;5078084;28;20560;-51
2022/04/10 00:43:34;;;;;;;3.88;3.15;;;2.90;99.90;;;;;;5078956;28;20192;-54
2022/04/10 00:46:02;;;;;;;3.05;2.28;;;2.90;99.90;;;;;;5074180;28;20200;-54
2022/04/10 00:48:30;;;;;;;4.40;3.53;;;3.00;99.90;;;;;;5039188;28;20551;-51
2022/04/10 00:53:46;;;;;;;2.38;2.22;;;2.90;99.90;;;;;;5056351;28;20552;-56
2022/04/10 00:56:13;;;;;;;2.92;2.60;;;2.90;99.90;;;;;;5061609;28;20515;-54
2022/04/10 00:58:41;;;;;;;3.15;2.63;;;2.90;99.90;;;;;;5060855;28;20220;-51
2022/04/10 01:01:08;;;;;;;4.45;3.08;;;2.90;99.90;;;;;;5061570;28;20204;-50
2022/04/10 01:03:35;;;;;;;3.88;3.25;;;2.90;99.90;;;;;;5062211;28;20192;-53
2022/04/10 01:06:03;;;;;;;3.08;2.88;;;2.90;99.90;;;;;;5061803;28;20293;-54
2022/04/10 01:08:30;;;;;;;3.92;3.13;;;2.90;99.90;;;;;;5061729;28;20216;-50
2022/04/10 01:10:58;;;;;;;3.20;2.90;;;2.80;99.90;;;;;;5061447;28;20220;-54
2022/04/10 01:13:25;;;;;;;3.00;2.45;;;2.80;99.90;;;;;;5061423;28;20236;-49
2022/04/10 01:15:53;;;;;;;6.40;3.33;;;2.80;99.90;;;;;;5061782;28;20422;-53
2022/04/10 01:18:20;;;;;;;3.22;2.90;;;2.70;99.90;;;;;;5061430;28;20236;-54
2022/04/10 01:20:47;;;;;;;3.33;2.65;;;2.70;99.90;;;;;;5061730;28;20205;-55
2022/04/10 01:23:15;;;;;;;2.75;2.53;;;2.70;99.90;;;;;;5061808;28;20274;-54
2022/04/10 01:25:44;;;;;;;4.80;3.10;;;2.90;99.90;;;;;;5061493;28;20580;-51
2022/04/10 01:28:12;;;;;;;4.07;3.55;;;2.90;99.90;;;;;;5061222;28;20266;-49
2022/04/10 01:30:39;;;;;;;5.25;3.95;;;2.70;99.90;;;;;;5061818;28;20442;-49
2022/04/10 01:33:07;;;;;;;3.75;3.10;;;2.80;99.90;;;;;;5061375;28;20350;-52
2022/04/10 01:35:36;;;;;;;4.13;3.53;;;2.80;99.90;;;;;;5061455;28;20195;-51
2022/04/10 01:38:05;;;;;;;4.38;3.97;;;2.80;99.90;;;;;;5061121;28;20264;-53
2022/04/10 01:40:33;;;;;;;3.65;3.35;;;2.80;99.90;;;;;;5061282;28;20205;-53
2022/04/10 01:43:00;;;;;;;3.65;3.35;;;2.80;99.90;;;;;;5061154;28;20209;-53
2022/04/10 01:45:27;;;;;;;4.60;2.83;;;2.80;99.90;;;;;;5061397;28;20241;-52
2022/04/10 01:47:55;;;;;;;4.70;3.50;;;2.80;99.90;;;;;;5061237;28;20287;-50
2022/04/10 01:50:22;;;;;;;5.75;3.70;;;2.80;99.90;;;;;;5061425;28;20239;-51
2022/04/10 01:52:50;;;;;;;5.28;4.00;;;2.70;99.90;;;;;;5061294;28;20203;-52
2022/04/10 01:55:17;;;;;;;4.57;4.18;;;2.60;99.90;;;;;;5061191;28;20208;-53
2022/04/10 01:57:45;;;;;;;4.30;3.55;;;2.50;99.90;;;;;;5061245;28;20226;-51
2022/04/10 02:00:12;;;;;;;4.38;3.83;;;2.60;99.90;;;;;;5060364;28;20236;-54
2022/04/10 02:02:39;;;;;;;4.22;3.92;;;2.70;99.90;;;;;;5061225;28;20193;-54
2022/04/10 02:05:07;;;;;;;5.53;4.40;;;2.70;99.90;;;;;;5061353;28;20196;-49
2022/04/10 02:07:35;;;;;;;4.15;3.75;;;2.70;99.90;;;;;;5060908;28;20232;-53
2022/04/10 02:10:02;;;;;;;4.25;3.85;;;2.60;99.90;;;;;;5060721;28;20204;-49
2022/04/10 02:12:33;;;;;;;6.15;4.80;;;2.60;99.90;;;;;;5060690;28;20204;-51
2022/04/10 02:15:01;;;;;;;7.47;4.75;;;2.70;99.90;;;;;;5060327;28;20233;-50
2022/04/10 02:17:28;;;;;;;5.13;4.10;;;2.60;99.90;;;;;;5060300;28;20462;-54
2022/04/10 02:19:55;;;;;;;5.45;4.85;;;2.60;99.90;;;;;;5060684;28;20196;-55
2022/04/10 02:22:22;;;;;;;3.47;3.17;;;2.70;99.90;;;;;;5060758;28;20219;-49
2022/04/10 02:24:53;;;;;;;4.55;4.03;;;2.80;99.90;;;;;;5060956;28;20410;-51
2022/04/10 02:27:21;;;;;;;6.13;4.00;;;2.80;99.90;;;;;;5060522;28;20220;-53
2022/04/10 02:29:48;;;;;;;4.30;3.90;;;2.80;99.90;;;;;;5060220;28;20319;-53
2022/04/10 02:32:16;;;;;;;4.53;4.13;;;2.80;99.90;;;;;;5060599;28;20223;-52
2022/04/10 02:34:43;;;;;;;4.90;3.90;;;2.70;99.90;;;;;;5060373;28;20235;-51
2022/04/10 02:37:10;;;;;;;6.82;4.47;;;2.70;99.90;;;;;;5060263;28;20196;-52
2022/04/10 02:39:38;;;;;;;7.57;4.05;;;2.70;99.90;;;;;;5059608;28;20242;-51
2022/04/10 02:42:06;;;;;;;6.57;4.60;;;2.70;99.90;;;;;;5071627;28;20280;-52
2022/04/10 02:44:33;;;;;;;6.55;3.88;;;2.80;99.90;;;;;;5079868;28;20227;-50
2022/04/10 02:47:01;;;;;;;5.75;5.07;;;2.70;99.90;;;;;;5079855;28;20206;-56
2022/04/10 02:49:28;;;;;;;4.13;3.83;;;2.60;99.90;;;;;;5080082;28;20208;-53
2022/04/10 02:51:55;;;;;;;6.15;5.55;;;2.60;99.90;;;;;;5079809;28;20269;-54
2022/04/10 02:54:22;;;;;;;5.00;4.50;;;2.50;99.90;;;;;;5079641;28;20242;-51
2022/04/10 02:56:49;;;;;;;5.55;4.45;;;2.60;99.90;;;;;;5072385;28;20583;-54
2022/04/10 02:59:16;;;;;;;5.70;4.18;;;2.50;99.90;;;;;;5060488;28;20539;-53
2022/04/10 03:01:43;;;;;;;5.38;4.65;;;2.50;99.90;;;;;;5060967;28;20249;-53
2022/04/10 03:04:10;;;;;;;6.97;5.00;;;2.50;99.90;;;;;;5061676;28;20198;-54
2022/04/10 03:06:37;;;;;;;4.95;3.80;;;2.50;99.90;;;;;;5063498;28;20209;-53
2022/04/10 03:09:05;;;;;;;6.20;4.47;;;2.50;99.90;;;;;;5062703;28;20258;-51
2022/04/10 03:11:32;;;;;;;4.97;4.47;;;2.40;99.90;;;;;;5061486;28;20239;-53
2022/04/10 03:13:59;;;;;;;5.13;4.47;;;2.40;99.90;;;;;;5061037;28;20238;-53
2022/04/10 03:16:26;;;;;;;4.95;4.55;;;2.20;99.90;;;;;;5061547;28;20196;-53
2022/04/10 03:18:53;;;;;;;4.80;4.40;;;2.10;99.90;;;;;;5061012;28;20588;-52
2022/04/10 03:21:23;;;;;;;5.63;4.65;;;2.20;99.90;;;;;;5061048;28;20196;-51
2022/04/10 03:23:50;;;;;;;5.93;3.50;;;2.10;99.90;;;;;;5060609;28;20509;-52
2022/04/10 03:26:18;;;;;;;4.63;4.10;;;2.10;99.90;;;;;;5060495;28;20215;-54
2022/04/10 03:28:45;;;;;;;6.05;4.55;;;2.10;99.90;;;;;;5060666;28;20290;-54
2022/04/10 03:31:13;;;;;;;4.32;3.92;;;2.10;99.90;;;;;;5060604;28;20779;-52
2022/04/10 03:33:43;;;;;;;4.95;4.45;;;2.20;99.90;;;;;;5060599;28;20282;-52
2022/04/10 03:36:11;;;;;;;8.75;4.97;;;2.10;99.90;;;;;;5060340;28;20502;-52
2022/04/10 03:38:39;;;;;;;4.78;4.38;;;2.20;99.90;;;;;;5060194;28;20615;-55
2022/04/10 03:41:07;;;;;;;6.03;5.53;;;2.20;99.90;;;;;;5059963;28;20227;-52
2022/04/10 03:43:34;;;;;;;8.45;5.15;;;2.20;99.90;;;;;;5059965;28;20436;-54
2022/04/10 03:46:02;;;;;;;5.93;5.22;;;2.10;99.90;;;;;;5060207;28;20441;-50
2022/04/10 03:48:29;;;;;;;5.65;4.28;;;2.20;99.90;;;;;;5059975;28;20227;-51
2022/04/10 03:50:57;;;;;;;4.90;4.05;;;2.10;99.90;;;;;;5059725;28;20219;-53
2022/04/10 03:53:24;;;;;;;5.03;4.32;;;2.10;99.90;;;;;;5060305;28;20207;-53
2022/04/10 03:55:54;;;;;;;4.60;4.20;;;2.10;99.90;;;;;;5060529;28;20474;-52
2022/04/10 03:58:21;;;;;;;5.05;4.25;;;2.10;99.90;;;;;;5060474;28;20254;-54
2022/04/10 04:00:49;;;;;;;6.97;5.65;;;2.10;99.90;;;;;;5060063;28;20208;-50
2022/04/10 04:03:17;;;;;;;4.65;4.25;;;2.10;99.90;;;;;;5060087;28;20199;-49
2022/04/10 04:05:44;;;;;;;5.18;3.85;;;2.10;99.90;;;;;;5059551;28;20583;-53
2022/04/10 04:08:12;;;;;;;7.82;5.30;;;2.30;99.90;;;;;;5059925;28;20219;-48
2022/04/10 04:10:39;;;;;;;4.43;4.03;;;2.30;99.90;;;;;;5059457;28;20205;-49
2022/04/10 04:13:06;;;;;;;4.70;3.85;;;2.20;99.90;;;;;;5059767;28;20237;-52
2022/04/10 04:15:34;;;;;;;6.93;4.28;;;2.30;99.90;;;;;;5060202;28;20210;-51
2022/04/10 04:18:01;;;;;;;5.55;4.18;;;2.40;99.90;;;;;;5059889;28;20215;-53
2022/04/10 04:20:29;;;;;;;5.35;4.85;;;2.40;99.90;;;;;;5059772;28;20207;-53
2022/04/10 04:22:57;;;;;;;8.73;5.32;;;2.30;99.90;;;;;;5063016;28;20203;-53
2022/04/10 04:25:31;;;;;;;6.80;5.60;;;2.20;99.90;;;;;;5066259;28;20206;-52
2022/04/10 04:27:58;;;;;;;7.88;5.80;;;2.20;99.90;;;;;;5064048;28;20218;-52
2022/04/10 04:30:25;;;;;;;7.30;4.70;;;2.20;99.90;;;;;;5063811;28;20498;-52
2022/04/10 04:32:53;;;;;;;5.15;4.63;;;2.30;99.90;;;;;;5063458;28;20231;-53
2022/04/10 04:35:20;;;;;;;5.20;4.68;;;2.40;99.90;;;;;;5063750;28;20514;-52
2022/04/10 04:37:47;;;;;;;5.50;5.00;;;2.40;99.90;;;;;;5063674;28;20538;-48
2022/04/10 04:40:18;;;;;;;6.57;5.50;;;2.40;99.90;;;;;;5064311;28;20201;-50
2022/04/10 04:42:49;;;;;;;8.55;6.35;;;2.50;99.90;;;;;;5063672;28;20196;-52
2022/04/10 04:45:18;;;;;;;5.60;5.07;;;2.60;99.90;;;;;;5063888;28;20203;-52
2022/04/10 04:47:45;;;;;;;17.20;7.18;;;2.60;99.90;;;;;;5063591;28;20227;-49
2022/04/10 04:50:12;;;;;;;8.43;5.85;;;2.60;99.90;;;;;;5063815;28;20314;-55
2022/04/10 04:52:40;;;;;;;5.80;5.20;;;2.80;99.90;;;;;;5063291;28;20315;-51
2022/04/10 04:55:08;;;;;;;5.60;5.10;;;2.90;99.90;;;;;;5063042;28;20200;-54
2022/04/10 04:57:35;;;;;;;6.70;6.00;;;3.00;99.90;;;;;;5063369;28;20220;-49
2022/04/10 05:00:03;;;;;;;5.05;4.65;;;3.10;99.90;;;;;;5063150;28;20196;-49
2022/04/10 05:02:30;;;;;;;4.65;4.25;;;3.30;99.90;;;;;;5063442;28;20205;-51
2022/04/10 05:05:01;;;;;;;4.80;4.40;;;3.60;99.90;;;;;;5063121;28;20288;-49
2022/04/10 05:07:28;;;;;;;4.28;3.90;;;3.50;99.90;;;;;;5063184;28;20236;-53
2022/04/10 05:09:56;;;;;;;5.72;5.22;;;3.50;99.90;;;;;;5062764;28;20450;-53
2022/04/10 05:12:23;;;;;;;5.38;4.82;;;3.70;99.90;;;;;;5062787;28;20246;-52
2022/04/10 05:14:50;;;;;;;4.72;4.32;;;3.80;99.90;;;;;;5063168;28;20423;-53
2022/04/10 05:17:18;;;;;;;7.53;5.03;;;3.90;99.90;;;;;;5063097;28;20246;-49
2022/04/10 05:19:45;;;;;;;3.80;3.55;;;4.20;99.90;;;;;;5062779;28;20201;-48
2022/04/10 05:22:12;;;;;;;4.75;4.30;;;4.30;99.90;;;;;;5063365;28;20202;-50
2022/04/10 05:24:40;;;;;;;5.03;4.28;;;4.30;99.90;;;;;;5060354;28;20512;-51
2022/04/10 05:27:08;;;;;;;5.18;4.68;;;4.40;99.90;;;;;;5060859;28;20202;-52
2022/04/10 05:29:36;;;;;;;4.57;3.25;;;4.60;99.90;;;;;;5063045;28;20205;-50
2022/04/10 05:32:04;;;;;;;3.88;3.42;;;4.60;99.90;;;;;;5062593;28;20543;-50
2022/04/10 05:34:31;;;;;;;7.25;5.40;;;4.80;99.90;;;;;;5062343;28;20199;-52
2022/04/10 05:36:58;;;;;;;4.78;3.50;;;5.10;99.90;;;;;;5062273;28;20202;-52
2022/04/10 05:39:26;;;;;;;6.65;4.28;;;5.10;99.90;;;;;;5061275;28;20406;-50
2022/04/10 05:41:53;;;;;;;5.35;4.15;;;5.10;99.90;;;;;;5062051;28;20398;-52
2022/04/10 05:44:21;;;;;;;3.97;3.58;;;5.10;99.90;;;;;;5062294;28;20219;-48
2022/04/10 05:46:51;;;;;;;7.65;5.10;;;5.30;99.90;;;;;;5062442;28;20199;-53
2022/04/10 05:49:19;;;;;;;5.35;4.90;;;5.40;99.90;;;;;;5062218;28;20234;-52
2022/04/10 05:51:47;;;;;;;4.00;3.65;;;5.60;99.90;;;;;;5062158;28;20223;-52
2022/04/10 05:54:15;;;;;;;6.25;3.30;;;5.60;99.90;;;;;;5061888;28;20199;-50
2022/04/10 05:56:42;;;;;;;3.50;3.20;;;5.60;99.90;;;;;;5062212;28;20198;-54
2022/04/10 05:59:10;;;;;;;5.07;4.00;;;5.40;99.90;;;;;;5061946;28;20223;-49
2022/04/10 06:01:37;;;;;;;5.70;3.38;;;5.70;99.90;;;;;;5062124;28;20408;-53
2022/04/10 06:04:04;;;;;;;5.40;2.78;;;6.00;99.90;;;;;;5064506;28;20279;-49
2022/04/10 06:06:32;;;;;;;4.00;3.60;;;6.00;99.90;;;;;;5052560;28;20279;-48
2022/04/10 06:08:59;;;;;;;3.75;3.40;;;5.80;99.90;;;;;;5053374;28;20224;-55
2022/04/10 06:11:26;;;;;;;4.13;3.50;;;5.80;99.90;;;;;;5054620;28;20225;-52
2022/04/10 06:13:53;;;;;;;5.22;3.08;;;5.80;99.90;;;;;;5051456;28;20203;-50
2022/04/10 06:16:21;;;;;;;3.00;2.50;;;5.80;99.90;;;;;;5055812;28;20202;-50
2022/04/10 06:18:48;;;;;;;4.40;4.00;;;5.60;99.90;;;;;;5051975;28;20220;-51
2022/04/10 06:21:15;;;;;;;7.72;4.32;;;5.50;99.90;;;;;;5056688;28;20244;-51
2022/04/10 06:23:43;;;;;;;4.50;4.10;;;5.40;99.90;;;;;;5050423;28;20239;-49
2022/04/10 06:26:10;;;;;;;4.22;3.92;;;5.10;99.90;;;;;;5054901;28;20254;-54
2022/04/10 06:28:38;;;;;;;4.35;3.95;;;5.10;99.90;;;;;;5050773;28;20219;-49
2022/04/10 06:31:05;;;;;;;6.88;4.10;;;5.00;99.90;;;;;;5052112;28;20203;-55
2022/04/10 06:33:32;;;;;;;4.22;3.92;;;5.00;99.90;;;;;;5052954;28;20485;-49
2022/04/10 06:36:00;;;;;;;6.18;4.40;;;5.00;99.90;;;;;;5048706;28;20238;-50
2022/04/10 06:38:27;;;;;;;5.93;4.38;;;5.00;99.90;;;;;;5044315;28;20313;-52
2022/04/10 06:40:55;;;;;;;13.35;5.07;;;5.20;99.90;;;;;;5043918;28;20276;-51
2022/04/10 06:43:22;;;;;;;6.70;4.45;;;5.30;99.90;;;;;;5052077;28;20276;-51
2022/04/10 06:45:52;;;;;;;4.43;3.88;;;5.60;99.90;;;;;;5044206;28;20210;-54
2022/04/10 06:48:20;;;;;;;6.95;4.40;;;5.60;99.90;;;;;;5042141;28;20249;-53
2022/04/10 06:50:47;;;;;;;5.88;3.92;;;5.60;99.90;;;;;;5043342;28;20207;-51
2022/04/10 06:53:15;;;;;;;7.00;4.10;;;5.80;99.90;;;;;;5044466;28;20590;-51
2022/04/10 06:55:42;;;;;;;4.38;3.97;;;5.80;99.90;;;;;;5047778;28;20204;-50
2022/04/10 06:58:10;;;;;;;6.32;4.28;;;5.90;99.90;;;;;;5048916;28;20294;-49
2022/04/10 07:00:38;;;;;;;3.67;3.38;;;5.90;99.90;;;;;;5050095;28;20246;-53
2022/04/10 07:03:06;;;;;;;6.90;4.85;;;5.90;99.90;;;;;;5056734;28;20318;-48
2022/04/10 07:05:35;;;;;;;4.68;3.67;;;5.80;99.90;;;;;;5056289;28;20233;-51
2022/04/10 07:08:07;;;;;;;4.90;4.43;;;5.90;99.90;;;;;;5052279;28;20245;-54
2022/04/10 07:10:36;;;;;;;8.20;3.75;;;6.00;99.90;;;;;;5053373;28;20204;-49
2022/04/10 07:13:04;;;;;;;6.43;4.82;;;6.00;99.90;;;;;;5050844;28;20228;-53
2022/04/10 07:15:31;;;;;;;5.90;4.32;;;5.90;99.90;;;;;;5053299;28;20202;-51
2022/04/10 07:17:58;;;;;;;4.13;3.72;;;5.90;99.90;;;;;;5052830;28;20290;-54
2022/04/10 07:20:26;;;;;;;4.63;4.22;;;6.00;99.90;;;;;;5048023;28;20204;-51
2022/04/10 07:25:39;;;;;;;4.32;3.63;;;6.10;99.90;;;;;;5052662;28;20249;-49
2022/04/10 07:28:07;;;;;;;6.93;5.03;;;6.20;99.90;;;;;;5051268;28;20265;-52
2022/04/10 07:30:34;;;;;;;4.63;4.15;;;6.20;99.90;;;;;;5045725;28;20553;-52
2022/04/10 07:33:01;;;;;;;4.75;4.18;;;6.50;99.90;;;;;;5049504;28;20422;-54
2022/04/10 07:35:36;;;;;;;3.85;3.42;;;6.80;99.90;;;;;;5048541;28;20197;-54
2022/04/10 07:38:04;;;;;;;6.97;4.85;;;7.10;99.90;;;;;;5050115;28;20216;-51
2022/04/10 07:40:31;;;;;;;4.43;3.85;;;7.30;99.90;;;;;;5051336;28;20412;-51
2022/04/10 07:42:59;;;;;;;8.85;4.55;;;7.40;99.90;;;;;;5044135;28;20301;-51
2022/04/10 07:48:12;;;;;;;6.05;3.58;;;7.50;99.90;;;;;;5042434;28;20243;-50
2022/04/10 07:50:40;;;;;;;5.30;3.13;;;7.60;99.90;;;;;;5041621;28;20528;-51
2022/04/10 07:53:07;;;;;;;4.32;3.70;;;7.70;99.90;;;;;;5043321;28;20280;-50
2022/04/10 07:55:35;;;;;;;5.18;4.55;;;8.00;99.90;;;;;;5041540;28;20200;-55
2022/04/10 07:58:08;;;;;;;4.80;3.53;;;8.30;99.90;;;;;;5051646;28;20414;-50
2022/04/10 08:00:37;;;;;;;5.95;3.20;;;8.70;99.90;;;;;;5042333;28;20196;-51
2022/04/10 08:03:04;;;;;;;9.77;3.47;;;9.00;99.90;;;;;;5042170;28;20204;-49
2022/04/10 08:05:31;;;;;;;5.75;3.13;;;9.10;99.90;;;;;;5040785;28;20370;-50
2022/04/10 08:08:00;;;;;;;4.10;3.50;;;9.00;99.90;;;;;;5050647;28;20220;-51
2022/04/10 08:10:29;;;;;;;5.07;3.90;;;8.70;99.90;;;;;;5046457;28;20542;-51
2022/04/10 08:12:58;;;;;;;3.90;3.60;;;8.60;99.90;;;;;;5043842;28;20239;-49
2022/04/10 08:15:26;;;;;;;8.52;3.65;;;8.80;99.90;;;;;;5046119;28;20473;-51
2022/04/10 08:17:54;;;;;;;4.07;3.22;;;8.40;99.90;;;;;;5045455;28;20216;-53
2022/04/10 08:20:22;;;;;;;3.85;3.53;;;8.50;99.90;;;;;;5044817;28;20204;-51
2022/04/10 08:22:50;;;;;;;3.28;2.97;;;9.80;99.90;;;;;;5046699;28;20209;-54
2022/04/10 08:25:17;;;;;;;4.15;3.00;;;10.30;99.90;;;;;;5048448;28;20207;-53
2022/04/10 08:27:48;;;;;;;5.07;3.13;;;10.10;99.90;;;;;;5044722;28;20225;-53
2022/04/10 08:30:16;;;;;;;3.30;2.50;;;9.50;99.90;;;;;;5046598;28;20337;-50
2022/04/10 08:32:44;;;;;;;3.95;2.38;;;8.80;99.90;;;;;;5045167;28;20220;-51
2022/04/10 08:35:12;;;;;;;2.42;2.22;;;8.10;99.90;;;;;;5049283;28;20195;-52
2022/04/10 08:37:40;;;;;;;6.43;3.17;;;7.80;99.90;;;;;;5052281;28;20357;-51
2022/04/10 08:40:08;;;;;;;2.17;1.98;;;7.60;99.90;;;;;;5057610;28;20211;-52
2022/04/10 08:42:35;;;;;;;1.98;1.30;;;7.70;99.90;;;;;;5049432;28;20199;-59
2022/04/10 08:45:05;;;;;;;1.88;1.77;;;8.10;99.90;;;;;;5045752;28;20204;-52
2022/04/10 08:47:33;;;;;;;2.70;2.20;;;8.50;99.90;;;;;;5052562;28;20439;-52
2022/04/10 08:50:01;;;;;;;1.60;1.30;;;8.60;99.90;;;;;;5045821;28;20207;-52
2022/04/10 08:52:29;;;;;;;1.55;1.00;;;8.40;99.90;;;;;;5042496;28;20419;-50
2022/04/10 08:54:56;;;;;;;3.05;2.00;;;8.20;99.90;;;;;;5045376;28;20378;-54
2022/04/10 08:57:23;;;;;;;3.58;1.90;;;8.10;99.90;;;;;;5039277;28;20216;-50
2022/04/10 08:59:55;;;;;;;3.35;1.80;;;8.10;99.90;;;;;;5039590;28;20224;-54
2022/04/10 09:02:22;;;;;;;1.33;1.23;;;7.90;99.90;;;;;;5039201;28;20270;-52
2022/04/10 09:04:50;;;;;;;5.40;2.20;;;7.90;99.90;;;;;;5044267;28;20204;-51
2022/04/10 09:07:17;;;;;;;1.83;1.65;;;7.90;99.90;;;;;;5037948;28;20275;-57
2022/04/10 09:09:56;;;;;;;4.30;2.00;;;7.90;99.90;;;;;;5039150;28;20227;-52
2022/04/10 09:12:27;;;;;;;3.08;2.05;;;7.80;99.90;;;;;;5042895;28;20500;-55
2022/04/10 09:15:04;;;;;;;2.35;2.15;;;7.70;99.90;;;;;;5051984;28;20278;-56
2022/04/10 09:17:31;;;;;;;5.07;2.33;;;7.70;99.90;;;;;;5053780;28;20249;-51
2022/04/10 09:20:00;;;;;;;2.47;1.70;;;7.70;99.90;;;;;;5057089;28;20203;-55
2022/04/10 09:22:35;;;;;;;5.40;2.03;;;7.80;99.90;;;;;;5052719;28;20306;-50
2022/04/10 09:25:16;;;;;;;3.00;2.13;;;7.80;99.90;;;;;;5056313;28;20238;-55
2022/04/10 09:27:46;;;;;;;5.18;3.13;;;8.20;99.90;;;;;;5045980;28;20258;-51
2022/04/10 09:30:16;;;;;;;2.65;1.90;;;8.70;99.90;;;;;;5050372;28;20390;-55
2022/04/10 09:32:53;;;;;;;1.98;1.77;;;9.40;99.90;;;;;;5052712;28;20224;-54
2022/04/10 09:35:22;;;;;;;2.58;2.42;;;9.90;99.90;;;;;;5055204;28;20194;-51
2022/04/10 09:37:55;;;;;;;5.55;2.15;;;10.00;99.90;;;;;;5054752;28;20267;-53
2022/04/10 09:40:25;;;;;;;3.70;1.75;;;10.20;99.90;;;;;;5051115;28;20195;-53
2022/04/10 09:43:05;;;;;;;6.28;1.70;;;10.50;99.90;;;;;;5059661;28;20202;-57
2022/04/10 09:45:40;;;;;;;2.85;1.88;;;10.80;99.90;;;;;;5052701;28;20262;-51
2022/04/10 09:48:23;;;;;;;6.63;2.55;;;10.60;99.90;;;;;;5056440;28;20364;-50
2022/04/10 09:51:00;;;;;;;4.43;1.77;;;10.80;99.90;;;;;;5051141;28;20209;-51
2022/04/10 09:53:28;;;;;;;1.10;1.10;;;10.80;99.90;;;;;;5055890;28;20471;-52
2022/04/10 09:56:02;;;;;;;2.20;1.90;;;11.20;99.90;;;;;;5046001;28;20534;-56
2022/04/10 09:58:30;;;;;;;4.28;1.70;;;11.50;99.90;;;;;;5058415;28;20286;-51
2022/04/10 10:00:58;;;;;;;2.28;1.20;;;11.20;99.90;;;;;;5052533;28;20207;-54
2022/04/10 10:03:36;;;;;;;1.55;1.20;;;10.30;99.90;;;;;;5056606;28;20584;-52
2022/04/10 10:06:07;;;;;;;1.52;1.27;;;9.40;99.90;;;;;;5061576;28;20245;-50
2022/04/10 10:08:36;;;;;;;1.95;1.70;;;9.00;99.90;;;;;;5051238;28;20224;-54
2022/04/10 10:11:03;;;;;;;2.15;1.90;;;9.30;99.90;;;;;;5053367;28;20213;-51
2022/04/10 10:13:30;;;;;;;5.03;2.20;;;9.60;99.90;;;;;;5051655;28;20554;-49
2022/04/10 10:15:58;;;;;;;3.72;2.38;;;10.00;99.90;;;;;;5047569;28;20218;-54
2022/04/10 10:18:45;;;;;;;4.53;2.05;;;10.30;99.90;;;;;;5051918;28;20483;-53
2022/04/10 10:21:14;;;;;;;2.08;1.88;;;9.90;99.90;;;;;;5058010;28;20428;-54
2022/04/10 10:23:46;;;;;;;3.65;1.80;;;9.50;99.90;;;;;;5050530;28;20500;-53
2022/04/10 10:26:32;;;;;;;3.92;2.05;;;9.30;99.90;;;;;;5061912;28;20211;-54
2022/04/10 10:29:38;;;;;;;2.85;1.63;;;9.60;99.90;;;;;;5057032;28;20420;-53
2022/04/10 10:32:23;;;;;;;5.57;2.80;;;9.40;99.90;;;;;;5048233;28;20210;-51
2022/04/10 10:34:51;;;;;;;2.35;2.15;;;9.20;99.90;;;;;;5055300;28;20197;-55
2022/04/10 10:37:28;;;;;;;4.82;2.40;;;9.30;99.90;;;;;;5049167;28;20272;-56
2022/04/10 10:39:57;;;;;;;2.10;1.90;;;9.60;99.90;;;;;;5046612;28;20236;-52
2022/04/10 10:42:25;;;;;;;3.45;3.15;;;10.00;99.90;;;;;;5046894;28;20225;-50
2022/04/10 10:44:52;;;;;;;1.58;1.48;;;10.70;99.90;;;;;;5052408;28;20516;-56
2022/04/10 10:47:25;;;;;;;4.18;2.67;;;11.60;99.90;;;;;;5053710;28;20372;-53
2022/04/10 10:49:54;;;;;;;9.60;1.85;;;12.30;99.90;;;;;;5051502;28;20267;-54
2022/04/10 10:52:23;;;;;;;2.85;1.88;;;12.40;99.90;;;;;;5048452;28;20198;-53
2022/04/10 10:54:55;;;;;;;2.45;1.98;;;12.50;99.90;;;;;;5050043;28;21149;-53
2022/04/10 10:57:25;;;;;;;3.65;2.10;;;12.00;99.90;;;;;;5061608;28;20260;-53
2022/04/10 11:00:11;;;;;;;2.35;2.10;;;11.10;99.90;;;;;;5060784;28;20199;-56
2022/04/10 11:02:39;;;;;;;2.60;1.92;;;9.90;99.90;;;;;;5063496;28;20211;-54
2022/04/10 11:05:25;;;;;;;4.05;1.90;;;9.00;99.90;;;;;;5052520;28;20209;-51
2022/04/10 11:08:07;;;;;;;4.57;2.80;;;7.60;99.90;;;;;;5048948;28;20492;-51
2022/04/10 11:11:04;;;;;;;1.95;1.85;;;7.10;99.90;;;;;;5054985;28;20562;-49
2022/04/10 11:13:40;;;;;;;4.13;2.47;;;7.40;99.90;;;;;;5047187;28;20214;-52
2022/04/10 11:16:11;;;;;;;3.75;2.30;;;7.80;99.90;;;;;;5048197;28;20196;-51
2022/04/10 11:18:48;;;;;;;2.15;2.03;;;7.80;99.90;;;;;;5048262;28;20278;-52
2022/04/10 11:21:21;;;;;;;4.95;3.30;;;7.80;99.90;;;;;;5045735;28;20559;-54
2022/04/10 11:23:57;;;;;;;2.42;2.22;;;7.90;99.90;;;;;;5045566;28;20309;-49
2022/04/10 11:26:35;;;;;;;2.63;2.20;;;8.20;99.90;;;;;;5041504;28;20238;-55
2022/04/10 11:29:06;;;;;;;2.75;2.55;;;8.80;99.90;;;;;;5067918;28;20273;-57
2022/04/10 11:31:44;;;;;;;7.57;2.67;;;9.30;99.90;;;;;;5080201;28;20201;-53
2022/04/10 11:34:19;;;;;;;2.75;2.38;;;9.80;99.90;;;;;;5079546;28;20235;-55
2022/04/10 11:36:55;;;;;;;3.10;2.80;;;10.20;99.90;;;;;;5080440;28;20218;-50
2022/04/10 11:39:23;;;;;;;2.78;1.58;;;9.60;99.90;;;;;;5062451;28;20241;-51
2022/04/10 11:41:52;;;;;;;2.63;1.73;;;9.00;99.90;;;;;;5056578;28;20288;-53
2022/04/10 11:44:19;;;;;;;1.98;1.88;;;8.50;99.90;;;;;;5056118;28;20541;-51
2022/04/10 11:46:49;;;;;;;3.88;2.40;;;8.10;99.90;;;;;;5062589;28;20203;-53
2022/04/10 11:49:20;;;;;;;5.25;2.70;;;7.80;99.90;;;;;;5067706;28;20286;-53
2022/04/10 11:51:56;;;;;;;2.60;2.40;;;7.50;99.90;;;;;;5072737;28;20199;-51
2022/04/10 11:54:29;;;;;;;4.78;2.60;;;7.10;99.90;;;;;;5071394;28;20222;-49
2022/04/10 11:56:59;;;;;;;4.20;3.10;;;6.70;99.90;;;;;;5051836;28;20196;-51
2022/04/10 11:59:34;;;;;;;3.72;2.90;;;6.50;99.90;;;;;;5050960;28;20207;-50
2022/04/10 12:02:09;;;;;;;4.40;2.63;;;6.50;99.90;;;;;;5050296;28;20195;-51
2022/04/10 12:04:38;;;;;;;4.18;3.25;;;6.80;99.90;;;;;;5050981;28;20400;-49
2022/04/10 12:07:16;;;;;;;3.28;2.97;;;7.40;99.90;;;;;;5047974;28;20211;-50
2022/04/10 12:09:47;;;;;;;3.10;2.88;;;7.90;99.90;;;;;;5044068;28;20507;-49
2022/04/10 12:12:17;;;;;;;4.85;2.72;;;8.40;99.90;;;;;;5047897;28;20266;-52
2022/04/10 12:14:44;;;;;;;2.53;2.10;;;8.50;99.90;;;;;;5045907;28;20228;-54
2022/04/10 12:17:13;;;;;;;6.75;2.45;;;8.70;99.90;;;;;;5051441;28;20192;-53
2022/04/10 12:19:40;;;;;;;4.55;2.45;;;8.50;99.90;;;;;;5046267;28;20197;-51
2022/04/10 12:22:08;;;;;;;5.93;2.80;;;8.40;99.90;;;;;;5054416;28;20200;-59
2022/04/10 12:24:44;;;;;;;2.80;2.60;;;8.30;99.90;;;;;;5051043;28;20483;-55
2022/04/10 12:27:13;;;;;;;2.80;2.13;;;8.50;99.90;;;;;;5075462;28;20246;-55
2022/04/10 12:29:41;;;;;;;1.88;1.45;;;8.90;99.90;;;;;;5050909;28;20393;-54
2022/04/10 12:32:09;;;;;;;2.42;2.08;;;9.00;99.90;;;;;;5053626;28;20223;-51
2022/04/10 12:34:42;;;;;;;1.17;1.08;;;8.90;99.90;;;;;;5049972;28;20220;-54
2022/04/10 12:37:12;;;;;;;1.50;1.40;;;8.80;99.90;;;;;;5054264;28;20197;-56
2022/04/10 12:39:40;;;;;;;1.35;0.90;;;8.80;99.90;;;;;;5053855;28;20307;-52
2022/04/10 12:42:22;;;;;;;1.95;1.17;;;8.80;99.90;;;;;;5052586;28;20219;-55
2022/04/10 12:44:57;;;;;;;4.35;1.73;;;9.00;99.90;;;;;;5055268;28;20250;-53
2022/04/10 12:47:44;;;;;;;3.47;2.25;;;9.30;99.90;;;;;;5058342;28;20235;-53
2022/04/10 12:50:19;;;;;;;2.70;2.13;;;9.10;99.90;;;;;;5067134;28;20239;-56
2022/04/10 12:52:46;;;;;;;3.35;2.75;;;8.90;99.90;;;;;;5065228;28;20203;-54
2022/04/10 12:55:19;;;;;;;3.85;1.77;;;8.80;99.90;;;;;;5049241;28;20241;-50
2022/04/10 12:58:03;;;;;;;4.00;1.85;;;8.90;99.90;;;;;;5047923;28;20219;-55
2022/04/10 13:00:37;;;;;;;1.88;1.77;;;9.00;99.90;;;;;;5059578;28;20210;-54
2022/04/10 13:03:24;;;;;;;9.13;2.10;;;8.90;99.90;;;;;;5053069;28;20262;-49
2022/04/10 13:06:01;;;;;;;2.40;2.20;;;9.00;99.90;;;;;;5059377;28;20212;-57
2022/04/10 13:08:35;;;;;;;1.65;1.55;;;9.20;99.90;;;;;;5048573;28;20232;-58
2022/04/10 13:11:05;;;;;;;6.28;3.28;;;9.60;99.90;;;;;;5046535;28;20201;-55
2022/04/10 13:14:06;;;;;;;4.57;2.47;;;9.70;99.90;;;;;;5046244;28;20221;-51
2022/04/10 13:16:35;;;;;;;2.45;2.17;;;9.90;99.90;;;;;;5049599;28;20225;-52